Terminal Aerodrome Forecast
Issued by NWS

Home | Current Version | Previous Version | Text Only | Print | Product List | Glossary On
Versions: 1 2 3 4 5 6 7 8 9 10 11 12 13 14 15 16 17 18 19 20 21
000
FTUS45 KRIW 240500
TAFPNA
TAF
KPNA 240539Z 2406/2506 31006KT P6SM SCT040 BKN070
     FM240900 30014KT 5SM -SN SCT015 OVC024
      TEMPO 2410/2413 2SM -SN BKN013
     FM241600 30018G27KT P6SM SCT050
     FM250100 30009KT P6SM FEW060
      AMD LTD TO CLD VIS AND WIND=

USA.gov is the U.S. government's official web portal to all federal, state and local government web resources and services.